Time;durP1;ratioP1;P1;durP2;ratioP2;P2;SDS_P1;SDS_P2;PMS_P1;PMS_P2;Temp;Humidity;BMP_temperature;BMP_pressure;BME280_temperature;BME280_humidity;BME280_pressure;Samples;Min_cycle;Max_cycle;Signal;HPM_P1;HPM_P2
2024/01/02 00:00:02;;;;;;;9.75;4.18;;;5.80;99.90;;;;;;5014727;28;20049;-63
2024/01/02 00:02:28;;;;;;;13.90;5.20;;;5.80;99.90;;;;;;5015253;28;20509;-63
2024/01/02 00:04:54;;;;;;;9.90;3.80;;;5.90;99.90;;;;;;5031340;28;20062;-63
2024/01/02 00:07:19;;;;;;;10.60;4.00;;;5.90;99.90;;;;;;5014301;28;20409;-63
2024/01/02 00:09:46;;;;;;;14.30;4.68;;;5.90;99.90;;;;;;5018978;28;20041;-63
2024/01/02 00:12:11;;;;;;;9.05;3.13;;;5.90;99.90;;;;;;5034859;28;20089;-63
2024/01/02 00:14:37;;;;;;;9.73;3.67;;;5.90;99.90;;;;;;5034357;28;20120;-63
2024/01/02 00:17:03;;;;;;;11.52;4.28;;;5.90;99.90;;;;;;5052821;28;20458;-63
2024/01/02 00:19:29;;;;;;;8.93;4.18;;;5.90;99.90;;;;;;5034663;28;20074;-63
2024/01/02 00:21:55;;;;;;;11.35;3.40;;;5.90;99.90;;;;;;5050734;28;20064;-63
2024/01/02 00:24:20;;;;;;;7.22;3.15;;;5.90;99.90;;;;;;5034515;28;20101;-63
2024/01/02 00:26:46;;;;;;;7.80;3.05;;;6.00;99.90;;;;;;5051158;28;20461;-63
2024/01/02 00:29:12;;;;;;;10.02;3.25;;;6.00;99.90;;;;;;5033537;28;20056;-63
2024/01/02 00:31:40;;;;;;;10.68;4.15;;;6.00;99.90;;;;;;5033939;28;20394;-63
2024/01/02 00:34:06;;;;;;;10.85;2.78;;;6.00;99.90;;;;;;5034741;28;20040;-63
2024/01/02 00:36:32;;;;;;;15.48;3.72;;;6.00;99.90;;;;;;5033659;28;20036;-63
2024/01/02 00:38:57;;;;;;;8.52;2.45;;;6.00;99.90;;;;;;5034111;28;20502;-63
2024/01/02 00:41:23;;;;;;;10.77;3.17;;;6.10;99.90;;;;;;5017046;28;20494;-63
2024/01/02 00:43:49;;;;;;;6.75;2.63;;;6.10;99.90;;;;;;5014064;28;20558;-63
2024/01/02 00:46:15;;;;;;;9.50;3.78;;;6.10;99.90;;;;;;5031238;28;20120;-63
2024/01/02 00:48:40;;;;;;;12.20;3.22;;;6.10;99.90;;;;;;5031029;28;20502;-63
2024/01/02 00:51:06;;;;;;;11.85;2.67;;;6.10;99.90;;;;;;5030435;28;20399;-63
2024/01/02 00:53:32;;;;;;;8.45;2.25;;;6.10;99.90;;;;;;5014294;28;20532;-63
2024/01/02 00:55:58;;;;;;;8.15;2.78;;;6.20;99.90;;;;;;5015058;28;20516;-63
2024/01/02 00:58:24;;;;;;;9.60;3.05;;;6.20;99.90;;;;;;5014218;28;20470;-63
2024/01/02 01:00:49;;;;;;;7.78;2.85;;;6.20;99.90;;;;;;5014503;28;20562;-63
2024/01/02 01:03:15;;;;;;;10.98;3.28;;;6.20;99.90;;;;;;5030017;28;20053;-63
2024/01/02 01:05:41;;;;;;;6.95;3.47;;;6.20;99.90;;;;;;5030739;28;20514;-63
2024/01/02 01:08:07;;;;;;;9.63;2.60;;;6.20;99.90;;;;;;5014793;28;20037;-64
2024/01/02 01:10:32;;;;;;;7.57;2.60;;;6.20;99.90;;;;;;5004723;28;20487;-63
2024/01/02 01:12:58;;;;;;;8.27;2.65;;;6.20;99.90;;;;;;5014575;28;20037;-63
2024/01/02 01:15:23;;;;;;;12.75;3.38;;;6.20;99.90;;;;;;5032101;28;20481;-63
2024/01/02 01:17:49;;;;;;;8.60;2.60;;;6.20;99.90;;;;;;5013962;28;20541;-63
2024/01/02 01:20:15;;;;;;;10.20;2.75;;;6.20;99.90;;;;;;5014270;28;20045;-63
2024/01/02 01:22:41;;;;;;;9.32;3.50;;;6.20;99.90;;;;;;5014228;28;20398;-63
2024/01/02 01:25:06;;;;;;;10.40;2.58;;;6.20;99.90;;;;;;5014020;28;20052;-63
2024/01/02 01:27:32;;;;;;;10.80;3.25;;;6.20;99.90;;;;;;5015562;28;20532;-63
2024/01/02 01:29:58;;;;;;;9.70;2.80;;;6.20;99.90;;;;;;5034088;28;20540;-63
2024/01/02 01:32:24;;;;;;;10.35;3.78;;;6.20;99.90;;;;;;5033273;28;20037;-63
2024/01/02 01:34:49;;;;;;;12.70;3.60;;;6.20;99.90;;;;;;5033870;28;20053;-63
2024/01/02 01:37:15;;;;;;;10.02;3.03;;;6.20;99.90;;;;;;5033822;28;20039;-63
2024/01/02 01:39:41;;;;;;;12.25;4.10;;;6.20;99.90;;;;;;5029861;28;20041;-63
2024/01/02 01:42:07;;;;;;;11.25;2.67;;;6.20;99.90;;;;;;5030901;28;20049;-62
2024/01/02 01:44:33;;;;;;;10.20;3.08;;;6.20;99.90;;;;;;5013846;28;20045;-63
2024/01/02 01:46:59;;;;;;;9.70;2.58;;;6.20;99.90;;;;;;5030060;28;20057;-62
2024/01/02 01:49:25;;;;;;;11.77;3.53;;;6.20;99.90;;;;;;5030239;28;20045;-62
2024/01/02 01:51:53;;;;;;;8.23;3.05;;;6.20;99.90;;;;;;5017231;28;20121;-63
2024/01/02 01:54:19;;;;;;;8.43;2.90;;;6.30;99.90;;;;;;5017015;28;20375;-62
2024/01/02 01:56:45;;;;;;;9.23;3.38;;;6.30;99.90;;;;;;5028496;28;20127;-63
2024/01/02 01:59:13;;;;;;;7.80;2.40;;;6.30;99.90;;;;;;5020854;28;20131;-62
2024/01/02 02:01:39;;;;;;;7.20;2.92;;;6.30;99.90;;;;;;5025108;28;20449;-62
2024/01/02 02:04:05;;;;;;;11.88;3.08;;;6.30;99.90;;;;;;5034992;28;20418;-62
2024/01/02 02:06:31;;;;;;;9.85;3.08;;;6.30;99.90;;;;;;5016242;28;20055;-62
2024/01/02 02:08:57;;;;;;;10.70;2.67;;;6.30;99.90;;;;;;5018184;28;20057;-63
2024/01/02 02:11:23;;;;;;;10.35;2.30;;;6.40;99.90;;;;;;5033709;28;20042;-62
2024/01/02 02:13:50;;;;;;;6.65;2.35;;;6.40;99.90;;;;;;5016548;28;20892;-63
2024/01/02 02:16:16;;;;;;;9.88;2.83;;;6.40;99.90;;;;;;5021535;28;20601;-63
2024/01/02 02:18:42;;;;;;;11.40;3.38;;;6.40;99.90;;;;;;5036972;28;20041;-63
2024/01/02 02:21:07;;;;;;;7.18;2.47;;;6.40;99.90;;;;;;5035962;28;20036;-62
2024/01/02 02:23:33;;;;;;;10.55;2.60;;;6.50;99.90;;;;;;5036791;28;20102;-62
2024/01/02 02:25:59;;;;;;;12.23;5.22;;;6.50;99.90;;;;;;5037368;28;20037;-62
2024/01/02 02:28:25;;;;;;;7.38;2.40;;;6.40;99.90;;;;;;5035881;28;20036;-62
2024/01/02 02:30:50;;;;;;;7.97;2.92;;;6.50;99.90;;;;;;5036516;28;20043;-62
2024/01/02 02:33:16;;;;;;;10.93;3.00;;;6.50;99.90;;;;;;5036685;28;20033;-62
2024/01/02 02:35:42;;;;;;;8.60;2.78;;;6.50;99.90;;;;;;5035822;28;20041;-62
2024/01/02 02:38:08;;;;;;;9.52;3.35;;;6.50;99.90;;;;;;5036898;28;20040;-62
2024/01/02 02:40:34;;;;;;;7.40;2.72;;;6.50;99.90;;;;;;5009680;28;20258;-62
2024/01/02 02:42:59;;;;;;;6.30;2.42;;;6.50;99.90;;;;;;5033985;28;20049;-61
2024/01/02 02:45:27;;;;;;;8.07;2.80;;;6.50;99.90;;;;;;5016616;28;20041;-62
2024/01/02 02:47:53;;;;;;;5.72;2.58;;;6.50;99.90;;;;;;5000155;28;20037;-62
2024/01/02 02:50:19;;;;;;;7.70;2.60;;;6.50;99.90;;;;;;5032366;28;20049;-62
2024/01/02 02:52:45;;;;;;;8.63;3.58;;;6.50;99.90;;;;;;5018667;28;20037;-62
2024/01/02 02:55:10;;;;;;;6.63;3.08;;;6.50;99.90;;;;;;5016451;28;20030;-62
2024/01/02 02:57:36;;;;;;;7.68;2.50;;;6.50;99.90;;;;;;5015800;28;20037;-62
2024/01/02 03:00:03;;;;;;;10.70;2.45;;;6.60;99.90;;;;;;5016701;28;20125;-62
2024/01/02 03:02:29;;;;;;;6.72;2.20;;;6.60;99.90;;;;;;5015789;28;20049;-62
2024/01/02 03:04:55;;;;;;;7.18;2.88;;;6.60;99.90;;;;;;5032206;28;20406;-62
2024/01/02 03:07:21;;;;;;;10.63;2.78;;;6.60;99.90;;;;;;5016573;28;20077;-62
2024/01/02 03:09:46;;;;;;;5.03;2.40;;;6.60;99.90;;;;;;4999378;28;20029;-62
2024/01/02 03:12:12;;;;;;;9.75;2.55;;;6.60;99.90;;;;;;5016132;28;20087;-62
2024/01/02 03:14:38;;;;;;;7.43;2.55;;;6.70;99.90;;;;;;5016356;28;20040;-62
2024/01/02 03:17:04;;;;;;;7.80;2.60;;;6.70;99.90;;;;;;5015347;28;20808;-62
2024/01/02 03:19:30;;;;;;;10.65;3.22;;;6.60;99.90;;;;;;5015857;28;20045;-62
2024/01/02 03:21:56;;;;;;;7.07;2.60;;;6.70;99.90;;;;;;5032963;28;20148;-63
2024/01/02 03:24:22;;;;;;;8.07;3.50;;;6.70;99.90;;;;;;5015184;28;20518;-62
2024/01/02 03:26:48;;;;;;;6.00;2.83;;;6.70;99.90;;;;;;5015801;28;20045;-62
2024/01/02 03:29:16;;;;;;;11.63;3.50;;;6.70;99.90;;;;;;5015930;28;20406;-62
2024/01/02 03:31:42;;;;;;;7.60;2.70;;;6.70;99.90;;;;;;5014854;28;20038;-62
2024/01/02 03:34:08;;;;;;;5.05;2.33;;;6.70;99.90;;;;;;5015438;28;20048;-62
2024/01/02 03:36:34;;;;;;;7.75;2.60;;;6.70;99.90;;;;;;4999146;28;20037;-62
2024/01/02 03:39:00;;;;;;;7.97;2.90;;;6.70;99.90;;;;;;5031511;28;20045;-62
2024/01/02 03:41:26;;;;;;;6.60;3.05;;;6.60;99.90;;;;;;5015542;28;20050;-62
2024/01/02 03:43:52;;;;;;;8.48;3.00;;;6.70;99.90;;;;;;5015448;28;20080;-62
2024/01/02 03:46:17;;;;;;;7.28;3.22;;;6.70;99.90;;;;;;5014660;28;20041;-62
2024/01/02 03:48:43;;;;;;;8.32;2.95;;;6.70;99.90;;;;;;5031653;28;20037;-62
2024/01/02 03:51:09;;;;;;;10.50;3.85;;;6.70;99.90;;;;;;5031741;28;20049;-62
2024/01/02 03:53:34;;;;;;;10.35;3.75;;;6.60;99.90;;;;;;5030759;28;20052;-62
2024/01/02 03:56:00;;;;;;;6.80;3.63;;;6.70;99.90;;;;;;5015607;28;20053;-62
2024/01/02 03:58:27;;;;;;;9.63;3.90;;;6.70;99.90;;;;;;5033002;28;20033;-62
2024/01/02 04:00:53;;;;;;;12.38;4.72;;;6.70;99.90;;;;;;5014587;28;20049;-62
2024/01/02 04:03:19;;;;;;;7.85;3.95;;;6.70;99.90;;;;;;5031656;28;20079;-62
2024/01/02 04:05:45;;;;;;;7.03;3.92;;;6.70;99.90;;;;;;5015391;28;20128;-62
2024/01/02 04:08:11;;;;;;;9.50;5.30;;;6.70;99.90;;;;;;5014317;28;20490;-62
2024/01/02 04:10:39;;;;;;;9.95;4.20;;;6.60;99.90;;;;;;5014905;28;20052;-62
2024/01/02 04:13:04;;;;;;;10.80;4.22;;;6.70;99.90;;;;;;5000434;28;20171;-62
2024/01/02 04:15:31;;;;;;;9.10;4.43;;;6.70;99.90;;;;;;4998189;28;20120;-62
2024/01/02 04:17:57;;;;;;;7.95;3.78;;;6.60;99.90;;;;;;5015537;28;20042;-62
2024/01/02 04:20:22;;;;;;;8.60;3.40;;;6.60;99.90;;;;;;5013969;28;20050;-62
2024/01/02 04:22:54;;;;;;;7.75;3.50;;;6.70;99.90;;;;;;5014748;28;20040;-62
2024/01/02 04:25:22;;;;;;;6.72;3.72;;;6.70;99.90;;;;;;5015121;28;20124;-62
2024/01/02 04:27:52;;;;;;;9.98;3.65;;;6.70;99.90;;;;;;5032025;28;20482;-62
2024/01/02 04:30:17;;;;;;;8.38;3.53;;;6.60;99.90;;;;;;5034424;28;20116;-62
2024/01/02 04:32:43;;;;;;;8.57;3.67;;;6.60;99.90;;;;;;5052137;28;20456;-62
2024/01/02 04:35:09;;;;;;;7.07;3.35;;;6.60;99.90;;;;;;5050209;28;20049;-62
2024/01/02 04:37:34;;;;;;;7.88;3.38;;;6.70;99.90;;;;;;5034718;28;20052;-62
2024/01/02 04:40:00;;;;;;;8.23;3.22;;;6.60;99.90;;;;;;5047228;28;20504;-62
2024/01/02 04:42:26;;;;;;;5.80;2.95;;;6.60;99.90;;;;;;5031010;28;20041;-62
2024/01/02 04:44:51;;;;;;;6.50;3.17;;;6.60;99.90;;;;;;5034349;28;20041;-62
2024/01/02 04:47:17;;;;;;;8.90;3.40;;;6.70;99.90;;;;;;5034301;28;20041;-62
2024/01/02 04:49:43;;;;;;;5.90;3.08;;;6.60;99.90;;;;;;5033085;28;20051;-62
2024/01/02 04:52:08;;;;;;;7.63;2.83;;;6.70;99.90;;;;;;5050778;28;20068;-62
2024/01/02 04:54:34;;;;;;;6.22;3.15;;;6.70;99.90;;;;;;5017952;28;20037;-62
2024/01/02 04:57:00;;;;;;;5.60;2.78;;;6.70;99.90;;;;;;5033945;28;20394;-62
2024/01/02 04:59:26;;;;;;;6.82;3.45;;;6.70;99.90;;;;;;5032724;28;20049;-63
2024/01/02 05:01:52;;;;;;;5.95;3.35;;;6.70;99.90;;;;;;5014269;28;20056;-63
2024/01/02 05:04:18;;;;;;;7.70;3.95;;;6.70;99.90;;;;;;5013590;28;20061;-63
2024/01/02 05:06:43;;;;;;;7.65;3.15;;;6.70;99.90;;;;;;5014316;28;20056;-63
2024/01/02 05:09:09;;;;;;;8.63;3.58;;;6.70;99.90;;;;;;5020566;28;20086;-63
2024/01/02 05:11:36;;;;;;;8.25;3.17;;;6.70;99.90;;;;;;5032940;28;20088;-63
2024/01/02 05:14:02;;;;;;;9.73;3.55;;;6.70;99.90;;;;;;5034286;28;20056;-62
2024/01/02 05:16:28;;;;;;;7.13;2.50;;;6.70;99.90;;;;;;5033163;28;20493;-63
2024/01/02 05:18:54;;;;;;;6.43;3.17;;;6.70;99.90;;;;;;5034242;28;20409;-63
2024/01/02 05:21:20;;;;;;;4.88;2.55;;;6.70;99.90;;;;;;5050330;28;20033;-63
2024/01/02 05:23:45;;;;;;;7.38;2.50;;;6.70;99.90;;;;;;5050177;28;20437;-62
2024/01/02 05:26:11;;;;;;;7.18;2.38;;;6.70;99.90;;;;;;5054523;28;20037;-62
2024/01/02 05:28:37;;;;;;;6.07;2.63;;;6.70;99.90;;;;;;5037894;28;20112;-62
2024/01/02 05:31:02;;;;;;;5.32;2.63;;;6.70;99.90;;;;;;5052022;28;20087;-62
2024/01/02 05:33:28;;;;;;;5.75;2.35;;;6.70;99.90;;;;;;5037738;28;20041;-62
2024/01/02 05:35:54;;;;;;;5.60;2.42;;;6.70;99.90;;;;;;5054336;28;20044;-62
2024/01/02 05:38:20;;;;;;;4.45;2.15;;;6.70;99.90;;;;;;5036904;28;20371;-62
2024/01/02 05:40:46;;;;;;;6.22;2.28;;;6.70;99.90;;;;;;5053714;28;20045;-62
2024/01/02 05:43:11;;;;;;;6.55;2.50;;;6.70;99.90;;;;;;5037586;28;20098;-63
2024/01/02 05:45:37;;;;;;;5.90;2.17;;;6.70;99.90;;;;;;5053761;28;20110;-62
2024/01/02 05:48:03;;;;;;;4.40;2.17;;;6.70;99.90;;;;;;5054274;28;20037;-63
2024/01/02 05:50:29;;;;;;;3.67;1.60;;;6.70;99.90;;;;;;5031369;28;20038;-62
2024/01/02 05:52:55;;;;;;;3.70;1.67;;;6.70;99.90;;;;;;5037020;28;20048;-63
2024/01/02 05:55:20;;;;;;;4.15;1.60;;;6.70;99.90;;;;;;5053893;28;20029;-62
2024/01/02 05:57:46;;;;;;;4.10;1.58;;;6.70;99.90;;;;;;5037824;28;20090;-63
2024/01/02 06:00:12;;;;;;;2.95;1.35;;;6.70;99.90;;;;;;5028675;28;20155;-62
2024/01/02 06:02:38;;;;;;;2.92;1.25;;;6.70;99.90;;;;;;5017367;28;20056;-63
2024/01/02 06:05:04;;;;;;;3.13;1.15;;;6.70;99.90;;;;;;5014318;28;20054;-62
2024/01/02 06:07:30;;;;;;;1.95;0.90;;;6.70;99.90;;;;;;4996571;28;20046;-63
2024/01/02 06:09:56;;;;;;;3.17;1.10;;;6.80;99.90;;;;;;4997932;28;20125;-63
2024/01/02 06:12:22;;;;;;;3.33;1.60;;;6.70;99.90;;;;;;5016474;28;20045;-63
2024/01/02 06:14:49;;;;;;;6.95;1.80;;;6.70;99.90;;;;;;5016393;28;20052;-63
2024/01/02 06:17:14;;;;;;;4.90;2.05;;;6.70;99.90;;;;;;5017119;28;20045;-63
2024/01/02 06:19:40;;;;;;;4.45;1.25;;;6.80;99.90;;;;;;4999983;28;20045;-63
2024/01/02 06:22:06;;;;;;;4.35;1.40;;;6.80;99.90;;;;;;5017408;28;20073;-63
2024/01/02 06:24:31;;;;;;;2.65;1.17;;;6.70;99.90;;;;;;5000340;28;20041;-63
2024/01/02 06:26:57;;;;;;;3.28;1.58;;;6.70;99.90;;;;;;4996894;28;20103;-63
2024/01/02 06:29:25;;;;;;;3.25;1.10;;;6.70;99.90;;;;;;5006491;28;20046;-63
2024/01/02 06:31:51;;;;;;;2.80;1.00;;;6.70;99.90;;;;;;5000513;28;20046;-63
2024/01/02 06:34:16;;;;;;;2.63;1.10;;;6.70;99.90;;;;;;5015997;28;20040;-63
2024/01/02 06:36:42;;;;;;;2.10;0.88;;;6.70;99.90;;;;;;5016036;28;20033;-63
2024/01/02 06:39:08;;;;;;;2.55;1.00;;;6.70;99.90;;;;;;5016954;28;20119;-63
2024/01/02 06:41:34;;;;;;;2.15;1.05;;;6.70;99.90;;;;;;5033901;28;20042;-63
2024/01/02 06:44:00;;;;;;;2.20;1.00;;;6.70;99.90;;;;;;5017133;28;20038;-63
2024/01/02 06:46:26;;;;;;;3.63;1.08;;;6.70;99.90;;;;;;5016700;28;20052;-63
2024/01/02 06:48:51;;;;;;;2.70;1.05;;;6.80;99.90;;;;;;5015754;28;20041;-63
2024/01/02 06:51:17;;;;;;;3.10;1.30;;;6.80;99.90;;;;;;5014437;28;20041;-63
2024/01/02 06:53:43;;;;;;;2.60;1.23;;;6.80;99.90;;;;;;5012112;28;20072;-63
2024/01/02 06:56:08;;;;;;;3.00;1.23;;;6.70;99.90;;;;;;4996176;28;20045;-63
2024/01/02 06:58:34;;;;;;;3.05;1.30;;;6.80;99.90;;;;;;4996772;28;20160;-63
2024/01/02 07:01:00;;;;;;;2.25;0.88;;;6.90;99.90;;;;;;4996911;28;20050;-63
2024/01/02 07:03:26;;;;;;;2.13;1.20;;;6.80;99.90;;;;;;4995896;28;20065;-63
2024/01/02 07:05:52;;;;;;;3.03;1.10;;;6.80;99.90;;;;;;4996782;28;20442;-63
2024/01/02 07:08:18;;;;;;;3.33;1.20;;;6.80;99.90;;;;;;4996397;28;20092;-63
2024/01/02 07:10:43;;;;;;;3.80;0.93;;;6.90;99.90;;;;;;4995694;28;20073;-63
2024/01/02 07:13:09;;;;;;;2.88;1.23;;;6.90;99.90;;;;;;5014848;28;20475;-63
2024/01/02 07:15:35;;;;;;;2.90;1.00;;;6.90;99.90;;;;;;5011976;28;20382;-63
2024/01/02 07:18:03;;;;;;;2.38;1.00;;;6.90;99.90;;;;;;5032856;28;20037;-63
2024/01/02 07:20:29;;;;;;;2.88;1.23;;;7.00;99.90;;;;;;5014699;28;20045;-63
2024/01/02 07:22:56;;;;;;;1.92;0.80;;;7.00;99.90;;;;;;5010815;28;20402;-63
2024/01/02 07:25:22;;;;;;;1.83;0.88;;;7.00;99.90;;;;;;5008602;28;20399;-63
2024/01/02 07:27:48;;;;;;;2.28;0.77;;;7.00;99.90;;;;;;5015411;28;20078;-63
2024/01/02 07:30:14;;;;;;;2.42;1.27;;;7.00;99.90;;;;;;5014611;28;20057;-63
2024/01/02 07:32:39;;;;;;;3.53;0.88;;;7.10;99.90;;;;;;5015200;28;20048;-63
2024/01/02 07:35:05;;;;;;;1.80;0.75;;;7.00;99.90;;;;;;5014255;28;20483;-63
2024/01/02 07:37:32;;;;;;;2.60;1.10;;;7.10;99.90;;;;;;5012676;28;20037;-63
2024/01/02 07:39:58;;;;;;;3.08;1.15;;;7.20;99.90;;;;;;4997441;28;20037;-63
2024/01/02 07:42:23;;;;;;;3.03;1.10;;;7.20;99.90;;;;;;5004973;28;20396;-63
2024/01/02 07:44:49;;;;;;;3.00;1.17;;;7.20;99.90;;;;;;4996505;28;20037;-63
2024/01/02 07:47:16;;;;;;;2.45;1.20;;;7.20;99.90;;;;;;5013469;28;20132;-63
2024/01/02 07:49:43;;;;;;;2.20;0.82;;;7.30;99.90;;;;;;5011430;28;20048;-63
2024/01/02 07:52:11;;;;;;;3.67;1.35;;;7.40;99.90;;;;;;4998274;28;20042;-63
2024/01/02 07:54:38;;;;;;;3.45;1.45;;;7.30;99.90;;;;;;5012218;28;20386;-63
2024/01/02 07:57:05;;;;;;;3.47;1.35;;;7.40;99.90;;;;;;5012937;28;20180;-63
2024/01/02 07:59:30;;;;;;;4.93;2.13;;;7.50;99.90;;;;;;5003957;28;20041;-63
2024/01/02 08:01:56;;;;;;;4.47;2.15;;;7.50;99.90;;;;;;4993441;28;20764;-63
2024/01/02 08:04:24;;;;;;;5.00;2.10;;;7.60;99.90;;;;;;4990781;28;20716;-63
2024/01/02 08:06:50;;;;;;;5.18;2.67;;;7.70;99.90;;;;;;5049087;28;20048;-63
2024/01/02 08:09:15;;;;;;;4.88;2.17;;;7.70;99.90;;;;;;5012083;28;20131;-63
2024/01/02 08:11:41;;;;;;;9.82;3.20;;;7.90;99.90;;;;;;5031268;28;20079;-63
2024/01/02 08:14:06;;;;;;;6.75;3.33;;;8.20;99.90;;;;;;5032727;28;20405;-63
2024/01/02 08:16:32;;;;;;;6.38;2.53;;;8.30;99.90;;;;;;5047391;28;20041;-63
2024/01/02 08:18:59;;;;;;;7.68;2.20;;;8.40;99.90;;;;;;5025843;28;20040;-63
2024/01/02 08:21:24;;;;;;;6.78;2.10;;;8.60;99.90;;;;;;5031013;28;20179;-64
2024/01/02 08:23:50;;;;;;;7.25;2.55;;;8.70;99.90;;;;;;5015111;28;20124;-64
2024/01/02 08:26:16;;;;;;;8.55;2.40;;;8.80;99.90;;;;;;5030984;28;20091;-63
2024/01/02 08:28:41;;;;;;;10.30;2.10;;;8.90;99.90;;;;;;5031876;28;20034;-64
2024/01/02 08:31:07;;;;;;;10.10;3.15;;;8.90;99.90;;;;;;5011900;28;20048;-63
2024/01/02 08:33:33;;;;;;;7.50;2.38;;;9.00;99.90;;;;;;5023938;28;20037;-64
2024/01/02 08:35:58;;;;;;;7.57;2.40;;;9.10;99.90;;;;;;5046914;28;20501;-63
2024/01/02 08:38:24;;;;;;;9.60;2.35;;;9.20;99.90;;;;;;5047958;28;20044;-63
2024/01/02 08:40:50;;;;;;;12.95;2.42;;;9.20;99.90;;;;;;5028378;28;20497;-64
2024/01/02 08:43:17;;;;;;;7.68;2.67;;;9.40;99.90;;;;;;5011743;28;20038;-63
2024/01/02 08:45:45;;;;;;;15.52;6.63;;;9.40;99.90;;;;;;5011768;28;20049;-63
2024/01/02 08:48:11;;;;;;;11.52;4.05;;;9.50;99.90;;;;;;5011317;28;20056;-63
2024/01/02 08:50:41;;;;;;;14.95;5.32;;;9.50;99.90;;;;;;5011390;28;20042;-62
2024/01/02 08:53:11;;;;;;;7.40;3.08;;;9.50;99.90;;;;;;5012107;28;20091;-63
2024/01/02 08:55:36;;;;;;;14.88;3.25;;;9.50;99.90;;;;;;5018324;28;20452;-63
2024/01/02 08:58:06;;;;;;;14.38;3.33;;;9.50;99.90;;;;;;5030933;28;20083;-64
2024/01/02 09:00:32;;;;;;;34.00;3.85;;;9.50;99.90;;;;;;5025349;28;20476;-63
2024/01/02 09:03:08;;;;;;;11.20;4.05;;;9.60;99.90;;;;;;5030020;28;20045;-64
2024/01/02 09:05:34;;;;;;;8.30;2.90;;;9.60;99.90;;;;;;5030534;28;20140;-64
2024/01/02 09:08:00;;;;;;;9.73;2.20;;;9.60;99.90;;;;;;5047505;28;20120;-64
2024/01/02 09:10:25;;;;;;;11.40;2.33;;;9.70;99.90;;;;;;5030139;28;20494;-64
2024/01/02 09:12:51;;;;;;;9.48;3.00;;;9.70;99.90;;;;;;5028573;28;20038;-64
2024/01/02 09:15:17;;;;;;;11.63;3.30;;;9.70;99.90;;;;;;5024738;28;20146;-64
2024/01/02 09:17:43;;;;;;;13.82;3.85;;;9.80;99.90;;;;;;5024767;28;20042;-64
2024/01/02 09:20:11;;;;;;;10.50;2.45;;;9.80;99.90;;;;;;5011449;28;20139;-64
2024/01/02 09:22:37;;;;;;;8.82;2.22;;;9.80;99.90;;;;;;5027788;28;20045;-64
2024/01/02 09:25:03;;;;;;;21.55;7.68;;;9.70;99.90;;;;;;5011726;28;20042;-64
2024/01/02 09:27:31;;;;;;;14.05;4.22;;;9.80;99.90;;;;;;5002468;28;20048;-64
2024/01/02 09:29:58;;;;;;;16.13;3.20;;;9.80;99.90;;;;;;5010874;28;20141;-64
2024/01/02 09:32:25;;;;;;;11.15;3.42;;;9.90;99.90;;;;;;5011337;28;20413;-64
2024/01/02 09:34:51;;;;;;;8.52;2.50;;;9.90;99.90;;;;;;5036632;28;20383;-64
2024/01/02 09:37:17;;;;;;;13.20;2.83;;;9.90;99.90;;;;;;5009572;28;20053;-63
2024/01/02 09:39:46;;;;;;;13.32;2.10;;;9.90;99.90;;;;;;5011898;28;20049;-63
2024/01/02 09:42:41;;;;;;;6.10;2.67;;;9.90;99.90;;;;;;5004175;28;20076;-63
2024/01/02 09:45:24;;;;;;;8.60;2.72;;;10.00;99.90;;;;;;5024447;28;20051;-64
2024/01/02 09:48:04;;;;;;;7.13;2.35;;;10.00;99.90;;;;;;5002664;28;20463;-64
2024/01/02 09:50:33;;;;;;;12.60;1.90;;;9.90;99.90;;;;;;5014245;28;20570;-63
2024/01/02 09:53:05;;;;;;;7.57;2.40;;;9.90;99.90;;;;;;5013357;28;20120;-63
2024/01/02 09:55:49;;;;;;;12.43;3.50;;;10.00;99.90;;;;;;5029808;28;20033;-63
2024/01/02 09:58:34;;;;;;;9.50;3.63;;;10.00;99.90;;;;;;5032664;28;20045;-63
2024/01/02 10:01:19;;;;;;;;;;;10.00;99.90;;;;;;5028288;28;20122;-63
2024/01/02 10:04:36;;;;;;;6.38;1.92;;;9.90;99.90;;;;;;5040811;28;19924;-62
2024/01/02 10:07:29;;;;;;;8.98;2.47;;;10.00;99.90;;;;;;4986445;28;20094;-63
2024/01/02 10:10:33;;;;;;;9.00;3.33;;;10.00;99.90;;;;;;5030707;28;20498;-64
2024/01/02 10:13:20;;;;;;;10.13;2.60;;;10.00;99.90;;;;;;5022508;28;20056;-63
2024/01/02 10:15:56;;;;;;;10.77;2.50;;;10.00;99.90;;;;;;5036092;28;20041;-64
2024/01/02 10:18:49;;;;;;;12.95;2.97;;;10.00;99.90;;;;;;5036362;28;20045;-63
2024/01/02 10:21:37;;;;;;;12.35;2.78;;;10.00;99.90;;;;;;5019793;28;20132;-63
2024/01/02 10:24:37;;;;;;;18.40;3.35;;;9.90;99.90;;;;;;5019600;28;20128;-64
2024/01/02 10:27:03;;;;;;;9.45;2.80;;;10.00;99.90;;;;;;5036121;28;20049;-64
2024/01/02 10:29:50;;;;;;;11.27;3.30;;;10.00;99.90;;;;;;5036616;28;20045;-63
2024/01/02 10:32:42;;;;;;;19.20;3.33;;;10.00;99.90;;;;;;5053249;28;20581;-63
2024/01/02 10:35:39;;;;;;;13.75;3.00;;;10.10;99.90;;;;;;5035359;28;20490;-64
2024/01/02 10:38:13;;;;;;;11.57;3.45;;;10.20;99.90;;;;;;5032658;28;20494;-64
2024/01/02 10:40:43;;;;;;;12.77;3.47;;;10.10;99.90;;;;;;5035957;28;20102;-63
2024/01/02 10:43:28;;;;;;;12.00;4.22;;;10.20;99.90;;;;;;5019855;28;20045;-63
2024/01/02 10:46:09;;;;;;;13.10;2.90;;;10.20;99.90;;;;;;5053000;28;20045;-64
2024/01/02 10:49:05;;;;;;;11.15;3.30;;;10.30;99.90;;;;;;5035669;28;20132;-64
2024/01/02 10:51:41;;;;;;;9.38;2.83;;;10.20;99.90;;;;;;5052890;28;20079;-64
2024/01/02 10:54:37;;;;;;;12.77;3.97;;;10.20;99.90;;;;;;5035641;28;20037;-64
2024/01/02 10:57:09;;;;;;;11.80;3.33;;;10.20;99.90;;;;;;5015473;28;20045;-64
2024/01/02 10:59:54;;;;;;;12.50;4.90;;;10.30;99.90;;;;;;5036167;28;20127;-63
2024/01/02 11:02:42;;;;;;;11.07;3.63;;;10.30;99.90;;;;;;5035372;28;20044;-64
2024/01/02 11:05:25;;;;;;;13.70;3.50;;;10.30;99.90;;;;;;5052806;28;20056;-63
2024/01/02 11:08:14;;;;;;;23.15;4.15;;;10.30;99.90;;;;;;5052575;28;20041;-64
2024/01/02 11:10:56;;;;;;;16.05;5.22;;;10.20;99.90;;;;;;5036036;28;20080;-64
2024/01/02 11:13:25;;;;;;;10.63;4.05;;;10.30;99.90;;;;;;5036112;28;20390;-64
2024/01/02 11:15:56;;;;;;;16.20;5.40;;;10.30;99.90;;;;;;5018600;28;20037;-64
2024/01/02 11:18:24;;;;;;;17.95;4.82;;;10.30;99.90;;;;;;5035850;28;20033;-64
2024/01/02 11:21:03;;;;;;;13.00;3.45;;;10.30;99.90;;;;;;5053481;28;20106;-64
2024/01/02 11:23:39;;;;;;;7.32;2.95;;;10.30;99.90;;;;;;5034764;28;20044;-64
2024/01/02 11:26:20;;;;;;;12.75;3.17;;;10.30;99.90;;;;;;5036246;28;20432;-64
2024/01/02 11:28:49;;;;;;;10.80;3.25;;;10.20;99.90;;;;;;5035793;28;20045;-64
2024/01/02 11:31:16;;;;;;;14.32;3.42;;;10.30;99.90;;;;;;5034913;28;20045;-64
2024/01/02 11:33:51;;;;;;;12.55;2.80;;;10.30;99.90;;;;;;5035361;28;20033;-64
2024/01/02 11:36:37;;;;;;;;;;;10.40;99.90;;;;;;5034995;28;20076;-64
2024/01/02 11:39:21;;;;;;;9.98;2.97;;;10.30;99.90;;;;;;5028485;28;19967;-64
2024/01/02 11:41:52;;;;;;;13.05;3.92;;;10.30;99.90;;;;;;5051969;28;20052;-64
2024/01/02 11:44:47;;;;;;;15.07;4.00;;;10.30;99.90;;;;;;5051049;28;20048;-64
2024/01/02 11:48:08;;;;;;;8.77;3.85;;;10.30;99.90;;;;;;5035394;28;20056;-64
2024/01/02 11:51:01;;;;;;;10.93;4.72;;;10.30;99.90;;;;;;5005990;28;20107;-64
2024/01/02 11:53:49;;;;;;;13.52;5.47;;;10.30;99.90;;;;;;5035250;28;20061;-64
2024/01/02 11:56:18;;;;;;;18.50;4.35;;;10.30;99.90;;;;;;5051574;28;20045;-64
2024/01/02 11:59:19;;;;;;;12.15;3.95;;;10.30;99.90;;;;;;5034418;28;20087;-64
2024/01/02 12:01:51;;;;;;;12.77;2.65;;;10.30;99.90;;;;;;5035134;28;20178;-64
2024/01/02 12:04:29;;;;;;;7.72;2.75;;;10.30;99.90;;;;;;5050380;28;20131;-63
2024/01/02 12:07:03;;;;;;;10.82;3.22;;;10.20;99.90;;;;;;5051577;28;20143;-64
2024/01/02 12:09:34;;;;;;;14.93;3.72;;;10.30;99.90;;;;;;5034896;28;20125;-64
2024/01/02 12:12:18;;;;;;;12.80;3.80;;;10.20;99.90;;;;;;5034359;28;20036;-64
2024/01/02 12:15:03;;;;;;;12.80;3.63;;;10.20;99.90;;;;;;5051377;28;20565;-64
2024/01/02 12:17:32;;;;;;;12.18;3.75;;;10.20;99.90;;;;;;5034780;28;20037;-64
2024/01/02 12:20:06;;;;;;;13.52;4.05;;;10.20;99.90;;;;;;5034312;28;20052;-64
2024/01/02 12:22:35;;;;;;;15.45;4.97;;;10.20;99.90;;;;;;5052371;28;20112;-64
2024/01/02 12:25:06;;;;;;;11.30;3.50;;;10.20;99.90;;;;;;5034690;28;20493;-63
2024/01/02 12:27:34;;;;;;;14.57;3.00;;;10.20;99.90;;;;;;5030384;28;20040;-63
2024/01/02 12:30:04;;;;;;;11.68;3.10;;;10.20;99.90;;;;;;5025171;28;20094;-64
2024/01/02 12:33:03;;;;;;;12.93;3.58;;;10.20;99.90;;;;;;5032971;28;20037;-63
2024/01/02 12:35:39;;;;;;;17.75;3.88;;;10.20;99.90;;;;;;5003818;28;20073;-63
2024/01/02 12:38:16;;;;;;;15.77;5.57;;;10.20;99.90;;;;;;5032771;28;20049;-62
2024/01/02 12:40:47;;;;;;;16.67;5.63;;;10.20;99.90;;;;;;5027638;28;20043;-62
2024/01/02 12:43:20;;;;;;;26.45;6.25;;;10.20;99.90;;;;;;5014987;28;20048;-61
2024/01/02 12:45:58;;;;;;;16.98;6.07;;;10.10;99.90;;;;;;5023569;28;20505;-62
2024/01/02 12:48:25;;;;;;;21.65;6.40;;;10.10;99.90;;;;;;5026463;28;20287;-62
2024/01/02 12:50:54;;;;;;;13.25;5.03;;;10.10;99.90;;;;;;5038238;28;20060;-62
2024/01/02 12:53:24;;;;;;;18.80;5.97;;;10.10;99.90;;;;;;5035006;28;20565;-62
2024/01/02 12:55:55;;;;;;;11.55;4.47;;;10.10;99.90;;;;;;5032363;28;20533;-62
2024/01/02 12:58:21;;;;;;;18.35;5.00;;;10.10;99.90;;;;;;5034398;28;20115;-62
2024/01/02 13:00:47;;;;;;;22.33;5.53;;;10.10;99.90;;;;;;5028707;28;20454;-62